createdAt,value
2019-03-25T00:39:32.177Z,13.10
2019-03-25T00:40:31.870Z,13.10
2019-03-25T00:41:31.859Z,8.60
2019-03-25T00:42:31.854Z,11.00
2019-03-25T00:43:31.843Z,9.90
2019-03-25T00:45:31.828Z,10.30
2019-03-25T00:46:31.817Z,13.50
2019-03-25T00:47:31.811Z,12.70
2019-03-25T00:48:31.799Z,8.30
2019-03-25T00:49:31.995Z,11.70
2019-03-25T00:51:31.774Z,12.10
2019-03-25T00:52:31.767Z,10.30
2019-03-25T00:53:34.380Z,11.00
2019-03-25T01:00:23.959Z,9.80
2019-03-25T01:01:23.954Z,12.00
2019-03-25T01:02:23.941Z,12.40
2019-03-25T01:03:23.935Z,11.20
2019-03-25T01:04:23.924Z,10.20
2019-03-25T01:05:23.922Z,10.20
2019-03-25T01:06:23.922Z,12.40
2019-03-25T01:07:23.901Z,11.30
2019-03-25T01:08:23.891Z,12.30
2019-03-25T01:09:23.884Z,13.90
2019-03-25T01:10:23.874Z,11.50
2019-03-25T01:11:24.116Z,10.10
2019-03-25T01:12:23.856Z,9.50
2019-03-25T01:13:23.850Z,8.70
2019-03-25T01:14:23.839Z,9.30
2019-03-25T01:15:23.834Z,9.40
2019-03-25T01:16:23.823Z,11.60
2019-03-25T01:17:23.816Z,10.90
2019-03-25T01:18:23.805Z,11.00
2019-03-25T01:19:23.799Z,9.10
2019-03-25T01:20:23.868Z,8.80
2019-03-25T01:21:24.018Z,10.90
2019-03-25T01:22:26.393Z,10.10
2019-03-25T01:23:23.767Z,9.20
2019-03-25T01:24:23.755Z,7.50
2019-03-25T01:25:23.749Z,11.00
2019-03-25T01:26:23.738Z,7.40
2019-03-25T01:27:23.732Z,9.40
2019-03-25T01:28:23.722Z,13.10
2019-03-25T01:29:23.718Z,9.60
2019-03-25T01:30:23.707Z,11.40
2019-03-25T01:31:23.699Z,10.60
2019-03-25T01:32:23.687Z,9.40
2019-03-25T01:33:23.686Z,11.70
2019-03-25T01:34:23.669Z,10.10
2019-03-25T01:35:23.665Z,8.20
2019-03-25T01:36:23.667Z,11.50
2019-03-25T01:38:23.639Z,11.30
2019-03-25T01:39:23.632Z,11.60
2019-03-25T01:40:23.622Z,9.70
2019-03-25T01:41:23.610Z,9.80
2019-03-25T01:42:23.612Z,12.40
2019-03-25T01:43:23.610Z,11.80
2019-03-25T01:44:23.587Z,10.20
2019-03-25T01:45:23.877Z,11.70
2019-03-25T01:46:23.570Z,9.90
2019-03-25T01:47:23.561Z,10.10
2019-03-25T01:49:23.545Z,8.20
2019-03-25T01:50:23.534Z,11.50
2019-03-25T01:51:23.529Z,8.20
2019-03-25T01:53:23.510Z,11.40
2019-03-25T01:54:23.503Z,10.00
2019-03-25T01:55:23.493Z,9.80
2019-03-25T01:56:23.487Z,12.60
2019-03-25T01:57:23.478Z,8.10
2019-03-25T01:58:23.470Z,9.60
2019-03-25T01:59:23.460Z,9.60
2019-03-25T02:00:23.453Z,11.30
2019-03-25T02:01:23.443Z,9.90
2019-03-25T02:02:23.439Z,10.50
2019-03-25T02:03:23.426Z,10.50
2019-03-25T02:04:23.421Z,10.60
2019-03-25T02:05:23.413Z,10.20
2019-03-25T02:06:23.407Z,9.20
2019-03-25T02:07:23.393Z,12.70
2019-03-25T02:08:23.396Z,9.80
2019-03-25T02:09:23.380Z,11.10
2019-03-25T02:10:23.370Z,10.40
2019-03-25T02:11:23.360Z,10.60
2019-03-25T02:12:23.358Z,8.40
2019-03-25T02:13:23.343Z,8.90
2019-03-25T02:14:23.338Z,9.00
2019-03-25T02:15:23.629Z,11.30
2019-03-25T02:16:23.321Z,11.90
2019-03-25T03:14:38.082Z,15.30
2019-03-25T03:15:37.764Z,15.20
2019-03-25T03:16:37.755Z,13.60
2019-03-25T03:17:37.743Z,11.10
2019-03-25T03:18:37.734Z,12.90
2019-03-25T03:19:37.728Z,12.20
2019-03-25T03:20:37.728Z,10.80
2019-03-25T03:21:37.710Z,10.20
2019-03-25T03:22:37.696Z,10.30
2019-03-25T03:23:37.691Z,9.70
2019-03-25T03:24:37.682Z,9.20
2019-03-25T03:25:37.672Z,9.90
2019-03-25T03:26:37.659Z,8.40
2019-03-25T03:27:37.652Z,8.10
2019-03-25T03:28:37.641Z,7.90
2019-03-25T03:29:37.655Z,8.00
2019-03-25T03:30:37.637Z,7.80
2019-03-25T03:31:37.617Z,7.40
2019-03-25T03:32:37.620Z,6.50
2019-03-25T03:33:37.599Z,6.30
2019-03-25T03:34:37.597Z,7.10
2019-03-25T03:35:37.585Z,6.90
2019-03-25T03:36:37.586Z,5.50
2019-03-25T03:37:37.565Z,5.90
2019-03-25T03:38:37.554Z,5.30
2019-03-25T03:39:37.547Z,6.60
2019-03-25T03:40:37.545Z,6.70
2019-03-25T03:41:37.545Z,6.70
2019-03-25T03:42:37.522Z,7.30
2019-03-25T03:43:37.513Z,6.50
2019-03-25T03:44:37.819Z,5.70
2019-03-25T03:45:37.496Z,4.70
2019-03-25T03:46:37.487Z,5.70
2019-03-25T03:47:37.481Z,6.30
2019-03-25T03:48:37.466Z,4.80
2019-03-25T03:49:37.464Z,5.50
2019-03-25T03:50:37.449Z,4.70
2019-03-25T03:51:37.447Z,5.00
2019-03-25T03:52:37.433Z,2.60
2019-03-25T03:53:37.425Z,3.70
2019-03-25T03:54:37.415Z,4.70
2019-03-25T03:55:37.411Z,4.70
2019-03-25T03:56:37.396Z,5.10
2019-03-25T03:57:37.392Z,3.50
2019-03-25T03:58:37.385Z,3.60
2019-03-25T03:59:37.373Z,3.60
2019-03-25T04:00:37.361Z,4.10
2019-03-25T04:01:37.355Z,2.80
2019-03-25T04:02:37.346Z,3.80
2019-03-25T04:03:37.338Z,5.20
2019-03-25T04:04:37.327Z,3.00
2019-03-25T04:05:37.321Z,3.00
2019-03-25T04:06:37.309Z,3.20
2019-03-25T04:07:37.306Z,3.10
2019-03-25T04:08:37.292Z,4.80
2019-03-25T04:09:37.287Z,3.30
2019-03-25T04:10:37.274Z,3.30
2019-03-25T04:11:37.275Z,3.50
2019-03-25T04:12:37.256Z,3.40
2019-03-25T04:13:37.251Z,4.50
2019-03-25T04:14:37.540Z,3.00
2019-03-25T04:15:37.234Z,2.90
2019-03-25T04:16:37.222Z,3.00
2019-03-25T04:17:37.220Z,3.40
2019-03-25T04:18:37.203Z,5.10
2019-03-25T04:19:37.198Z,3.20
2019-03-25T04:20:37.185Z,5.20
2019-03-25T04:21:37.180Z,4.30
2019-03-25T04:22:37.167Z,3.60
2019-03-25T04:23:37.162Z,3.60
2019-03-25T04:24:37.149Z,3.30
2019-03-25T04:25:37.245Z,2.20
2019-03-25T04:26:37.132Z,2.80
2019-03-25T04:27:37.128Z,3.30
2019-03-25T04:28:37.113Z,3.40
2019-03-25T04:29:37.107Z,3.60
2019-03-25T04:30:37.096Z,2.90
2019-03-25T04:31:37.088Z,2.60
2019-03-25T04:32:37.076Z,4.30
2019-03-25T04:33:37.071Z,4.90
2019-03-25T04:34:37.073Z,4.10
2019-03-25T04:35:37.080Z,2.90
2019-03-25T04:36:37.107Z,3.30
2019-03-25T04:37:37.039Z,3.20
2019-03-25T04:38:37.022Z,3.80
2019-03-25T04:39:37.016Z,4.80
2019-03-25T04:40:37.004Z,4.10
2019-03-25T04:41:36.996Z,2.90
2019-03-25T04:42:36.986Z,2.30
2019-03-25T04:43:36.979Z,3.80
2019-03-25T04:44:36.967Z,4.10
2019-03-25T04:45:36.959Z,3.70
2019-03-25T04:46:36.949Z,4.60
2019-03-25T04:47:36.941Z,2.70
2019-03-25T04:48:36.930Z,3.50
2019-03-25T04:49:37.222Z,3.70
2019-03-25T04:50:36.911Z,4.30
2019-03-25T04:51:36.905Z,2.70
2019-03-25T04:52:36.893Z,3.60
2019-03-25T04:53:36.894Z,3.90
2019-03-25T04:54:36.876Z,5.50
2019-03-25T04:55:36.867Z,6.10
2019-03-25T04:56:39.910Z,2.50
2019-03-25T04:57:36.850Z,4.20
2019-03-25T04:58:36.841Z,3.50
2019-03-25T04:59:36.837Z,3.80
2019-03-25T05:00:36.821Z,4.90
2019-03-25T05:01:36.810Z,2.40
2019-03-25T05:02:36.803Z,3.60
2019-03-25T05:03:36.793Z,2.40
2019-03-25T05:04:36.780Z,5.10
2019-03-25T05:05:36.774Z,3.80
2019-03-25T05:06:36.762Z,4.10
2019-03-25T05:07:36.755Z,3.60
2019-03-25T05:08:36.747Z,4.40
2019-03-25T05:09:36.735Z,4.20
2019-03-25T05:10:36.723Z,4.60
2019-03-25T05:11:36.716Z,3.60
2019-03-25T05:12:36.704Z,3.60
2019-03-25T05:13:36.697Z,2.80
2019-03-25T05:14:36.687Z,3.40
2019-03-25T05:15:36.679Z,4.70
2019-03-25T05:16:36.668Z,3.80
2019-03-25T05:17:36.660Z,4.30
2019-03-25T05:18:36.648Z,4.00
2019-03-25T05:19:36.641Z,4.70
2019-03-25T07:39:01.828Z,18.40
2019-03-25T07:40:01.862Z,17.10
2019-03-25T07:41:01.800Z,15.00
2019-03-25T07:42:01.793Z,14.80
2019-03-25T07:43:01.781Z,12.10
2019-03-25T07:44:01.774Z,16.70
2019-03-25T07:45:01.765Z,18.00
2019-03-25T07:46:01.760Z,17.60
2019-03-25T07:47:01.744Z,18.10
2019-03-25T07:48:04.078Z,12.10
2019-03-25T07:49:01.728Z,13.90
2019-03-25T07:50:01.724Z,11.70
2019-03-25T07:51:01.709Z,17.90
2019-03-25T07:52:01.702Z,12.60
2019-03-25T07:53:01.692Z,14.80
2019-03-25T08:05:43.783Z,13.60
2019-03-25T08:06:43.757Z,14.90
2019-03-25T08:07:43.745Z,19.60
2019-03-25T08:12:52.683Z,11.10
2019-03-25T08:13:52.677Z,9.80
2019-03-25T08:14:52.690Z,8.80
2019-03-25T08:15:52.677Z,11.10
2019-03-25T08:16:52.651Z,6.00
2019-03-25T08:17:52.631Z,5.40
2019-03-25T08:18:52.618Z,6.20
2019-03-25T08:19:52.612Z,4.30
2019-03-25T08:20:52.650Z,5.90
2019-03-25T08:21:52.594Z,2.30
2019-03-25T08:22:52.585Z,4.70
2019-03-25T08:23:52.825Z,4.80
2019-03-25T08:24:52.565Z,2.30
2019-03-25T08:25:52.557Z,4.80
2019-03-25T08:26:52.547Z,4.10
2019-03-25T08:27:59.994Z,4.00
2019-03-25T08:28:52.530Z,3.90
2019-03-25T08:29:52.523Z,3.50
2019-03-25T08:30:52.509Z,6.20
2019-03-25T08:31:52.502Z,5.20
2019-03-25T08:32:52.493Z,2.60
2019-03-25T08:33:52.485Z,3.60
2019-03-25T08:34:52.481Z,3.80
2019-03-25T08:35:52.467Z,2.70
2019-03-25T08:36:52.458Z,4.00
2019-03-25T08:37:52.450Z,2.20
2019-03-25T08:38:52.441Z,3.60
2019-03-25T08:39:52.433Z,4.30
2019-03-25T08:40:52.425Z,6.30
2019-03-25T08:41:52.418Z,5.10
2019-03-25T08:42:52.406Z,4.30
2019-03-25T08:43:52.399Z,6.10
2019-03-25T08:44:52.389Z,5.50
2019-03-25T08:45:52.383Z,5.80
2019-03-25T08:46:52.372Z,4.70
2019-03-25T08:47:52.366Z,5.10
2019-03-25T08:48:52.361Z,6.30
2019-03-25T08:49:52.351Z,6.70
2019-03-25T08:50:52.340Z,6.00
2019-03-25T08:51:52.334Z,6.70
2019-03-25T08:52:52.325Z,5.90
2019-03-25T08:53:52.320Z,7.50
2019-03-25T08:54:52.612Z,7.50
2019-03-25T08:55:52.304Z,10.80
2019-03-25T08:56:52.295Z,8.70
2019-03-25T08:57:52.299Z,7.50
2019-03-25T08:58:52.278Z,7.20
2019-03-25T08:59:52.273Z,8.50
2019-03-25T09:00:52.264Z,6.70
2019-03-25T09:01:52.263Z,8.60
2019-03-25T09:02:54.870Z,6.50
2019-03-25T09:03:52.243Z,8.30
2019-03-25T09:04:52.234Z,10.20
2019-03-25T09:05:52.230Z,8.40
2019-03-25T09:06:52.220Z,8.20
2019-03-25T09:07:52.216Z,9.80
2019-03-25T09:08:52.205Z,8.70
2019-03-25T09:12:17.127Z,7.50
2019-03-25T09:13:17.128Z,7.70
2019-03-25T09:14:17.126Z,10.90
2019-03-25T09:15:17.105Z,8.80
2019-03-25T09:17:17.090Z,11.20
2019-03-25T09:18:17.086Z,9.10
2019-03-25T09:19:17.079Z,11.00
2019-03-25T09:22:17.060Z,8.10
2019-03-25T09:32:35.819Z,12.80
2019-03-25T09:33:35.839Z,8.10
2019-03-25T09:34:35.806Z,9.90
2019-03-25T09:35:35.809Z,9.00
2019-03-25T09:36:35.793Z,11.40
2019-03-25T09:37:35.788Z,9.20
2019-03-25T09:38:35.783Z,6.20
2019-03-25T09:39:35.781Z,5.60
2019-03-25T09:40:35.768Z,4.60
2019-03-25T10:35:49.004Z,7.20
2019-03-25T10:37:48.690Z,7.10
2019-03-25T10:38:48.681Z,5.70
2019-03-25T10:39:48.677Z,6.70
2019-03-25T10:40:48.668Z,5.80
2019-03-25T10:41:48.664Z,7.30
2019-03-25T10:42:48.658Z,7.40
2019-03-25T10:44:48.647Z,7.50
2019-03-25T10:45:48.637Z,8.00
2019-03-25T10:47:48.629Z,6.10
2019-03-25T10:48:48.620Z,6.90
2019-03-25T10:49:48.622Z,7.50
2019-03-25T10:50:48.609Z,6.10
2019-03-25T10:51:48.607Z,5.20
2019-03-25T10:52:48.600Z,7.40
2019-03-25T10:53:48.595Z,6.20
2019-03-25T10:54:48.665Z,4.30
2019-03-25T11:01:43.838Z,5.50
